Time;durP1;ratioP1;P1;durP2;ratioP2;P2;SDS_P1;SDS_P2;PMS_P1;PMS_P2;Temp;Humidity;BMP_temperature;BMP_pressure;BME280_temperature;BME280_humidity;BME280_pressure;Samples;Min_cycle;Max_cycle;Signal;HPM_P1;HPM_P2
2022/01/29 00:01:13;;;;;;;54.90;19.52;;;6.70;99.90;;;;;;5015879;28;20058;-78
2022/01/29 00:03:38;;;;;;;57.03;19.00;;;6.80;99.90;;;;;;5019256;28;20036;-79
2022/01/29 00:06:05;;;;;;;62.92;20.85;;;6.80;99.90;;;;;;5035331;28;20088;-79
2022/01/29 00:08:31;;;;;;;58.72;20.63;;;6.80;99.90;;;;;;5016685;28;20029;-80
2022/01/29 00:11:06;;;;;;;58.60;20.90;;;6.70;99.90;;;;;;5035251;28;20026;-79
2022/01/29 00:13:32;;;;;;;55.83;20.88;;;6.80;99.90;;;;;;5033762;28;20026;-78
2022/01/29 00:15:58;;;;;;;58.42;22.02;;;6.70;99.90;;;;;;5033734;28;20064;-79
2022/01/29 00:18:23;;;;;;;61.17;23.20;;;6.80;99.90;;;;;;5035864;28;20042;-80
2022/01/29 00:20:49;;;;;;;68.15;24.58;;;6.70;99.90;;;;;;5036941;28;20021;-78
2022/01/29 00:23:14;;;;;;;62.25;24.25;;;6.80;99.90;;;;;;5037986;28;20055;-78
2022/01/29 00:25:40;;;;;;;64.25;24.35;;;6.70;99.90;;;;;;5038607;28;20022;-78
2022/01/29 00:28:05;;;;;;;64.30;25.38;;;6.70;99.90;;;;;;5050723;28;20040;-79
2022/01/29 00:30:37;;;;;;;68.30;25.95;;;6.80;99.90;;;;;;5042985;28;20445;-79
2022/01/29 00:33:03;;;;;;;74.30;28.17;;;6.70;99.90;;;;;;5041738;28;20415;-79
2022/01/29 00:35:29;;;;;;;72.68;26.80;;;6.70;99.90;;;;;;5041408;28;20051;-78
2022/01/29 00:37:54;;;;;;;68.47;28.83;;;6.80;99.90;;;;;;5038202;28;20029;-78
2022/01/29 00:42:48;;;;;;;67.05;28.55;;;6.80;99.90;;;;;;5033549;22;20077;-73
2022/01/29 00:45:14;;;;;;;77.72;31.15;;;6.80;99.90;;;;;;5013351;28;20533;-72
2022/01/29 00:47:40;;;;;;;86.55;32.65;;;6.70;99.90;;;;;;4995398;28;20056;-73
2022/01/29 00:50:06;;;;;;;75.93;31.33;;;6.80;99.90;;;;;;5013369;28;20061;-72
2022/01/29 00:52:32;;;;;;;73.05;31.10;;;6.70;99.90;;;;;;5012875;28;20029;-73
2022/01/29 00:54:57;;;;;;;79.65;33.33;;;6.80;99.90;;;;;;5015494;28;20518;-73
2022/01/29 00:57:24;;;;;;;98.65;35.13;;;6.80;99.90;;;;;;5016522;28;20097;-73
2022/01/29 00:59:49;;;;;;;80.35;34.20;;;6.80;99.90;;;;;;5016139;28;20041;-72
2022/01/29 01:02:15;;;;;;;83.22;34.33;;;6.70;99.90;;;;;;5016751;28;20018;-73
2022/01/29 01:04:40;;;;;;;81.45;35.42;;;6.70;99.90;;;;;;5017017;28;20026;-72
2022/01/29 01:07:07;;;;;;;85.63;35.88;;;6.70;99.90;;;;;;5015912;28;20025;-74
2022/01/29 01:09:33;;;;;;;88.63;37.78;;;6.70;99.90;;;;;;4998876;28;20104;-73
2022/01/29 01:11:59;;;;;;;86.75;37.47;;;6.70;99.90;;;;;;5017310;28;20034;-73
2022/01/29 01:14:25;;;;;;;82.05;38.40;;;6.70;99.90;;;;;;5022479;28;20037;-73
2022/01/29 01:16:50;;;;;;;85.32;39.63;;;6.70;99.90;;;;;;5025505;28;20033;-73
2022/01/29 01:19:16;;;;;;;88.85;38.50;;;6.70;99.90;;;;;;5022998;28;20201;-73
2022/01/29 01:21:41;;;;;;;83.20;38.35;;;6.70;99.90;;;;;;5032175;28;20029;-73
2022/01/29 01:24:07;;;;;;;92.25;40.80;;;6.60;99.90;;;;;;5037331;28;20127;-74
2022/01/29 01:26:32;;;;;;;94.28;40.53;;;6.60;99.90;;;;;;5038853;28;20044;-73
2022/01/29 01:28:58;;;;;;;100.82;41.70;;;6.70;99.90;;;;;;5021801;28;20302;-73
2022/01/29 01:31:23;;;;;;;84.90;40.88;;;6.60;99.90;;;;;;5037914;28;20026;-74
2022/01/29 01:33:50;;;;;;;102.85;42.47;;;6.60;99.90;;;;;;5037468;28;20082;-74
2022/01/29 01:36:19;;;;;;;93.57;42.38;;;6.60;99.90;;;;;;5032189;28;20042;-73
2022/01/29 01:38:50;;;;;;;96.53;45.83;;;6.70;99.90;;;;;;5035406;28;20026;-73
2022/01/29 01:41:23;;;;;;;90.15;44.53;;;6.70;99.90;;;;;;5030039;28;20033;-74
2022/01/29 01:43:49;;;;;;;94.05;44.03;;;6.70;99.90;;;;;;5033889;28;20010;-73
2022/01/29 01:46:15;;;;;;;98.13;46.10;;;6.70;99.90;;;;;;5034531;28;20538;-72
2022/01/29 01:48:40;;;;;;;100.97;45.97;;;6.70;99.90;;;;;;5026916;28;20305;-73
2022/01/29 01:51:07;;;;;;;105.50;46.80;;;6.70;99.90;;;;;;5019744;28;20037;-73
2022/01/29 01:53:33;;;;;;;101.00;47.65;;;6.70;99.90;;;;;;5026566;28;20490;-73
2022/01/29 01:55:58;;;;;;;113.38;49.00;;;6.60;99.90;;;;;;5018343;28;20041;-74
2022/01/29 01:58:24;;;;;;;102.07;49.70;;;6.60;99.90;;;;;;5014679;28;20030;-73
2022/01/29 02:00:49;;;;;;;111.80;51.70;;;6.60;99.90;;;;;;5014777;28;20037;-72
2022/01/29 02:03:15;;;;;;;112.97;52.63;;;6.60;99.90;;;;;;5014747;28;20532;-72
2022/01/29 02:05:41;;;;;;;118.93;54.65;;;6.50;99.90;;;;;;5014253;28;20514;-73
2022/01/29 02:08:08;;;;;;;106.88;54.13;;;6.50;99.90;;;;;;5014633;28;20045;-73
2022/01/29 02:10:33;;;;;;;116.03;55.40;;;6.60;99.90;;;;;;5014401;28;20037;-73
2022/01/29 02:13:02;;;;;;;116.60;55.50;;;6.60;99.90;;;;;;5014508;28;20029;-72
2022/01/29 02:15:29;;;;;;;126.38;56.88;;;6.60;99.90;;;;;;5013894;28;20266;-73
2022/01/29 02:17:55;;;;;;;120.40;58.08;;;6.60;99.90;;;;;;5013907;28;20482;-72
2022/01/29 02:20:23;;;;;;;117.75;57.70;;;6.60;99.90;;;;;;5014624;28;20242;-72
2022/01/29 02:22:50;;;;;;;122.97;57.10;;;6.70;99.90;;;;;;5014400;28;20475;-73
2022/01/29 02:25:39;;;;;;;121.93;58.15;;;6.70;99.90;;;;;;4996263;28;20029;-73
2022/01/29 02:28:08;;;;;;;121.45;60.65;;;6.60;99.90;;;;;;5015151;28;20026;-73
2022/01/29 02:30:35;;;;;;;123.60;58.75;;;6.70;99.90;;;;;;5015213;28;20026;-73
2022/01/29 02:33:05;;;;;;;122.43;59.20;;;6.70;99.90;;;;;;5014047;28;20026;-73
2022/01/29 02:35:31;;;;;;;128.02;60.05;;;6.70;99.90;;;;;;5013759;28;20021;-73
2022/01/29 02:37:58;;;;;;;132.48;61.58;;;6.80;99.90;;;;;;5017478;28;20382;-73
2022/01/29 02:40:24;;;;;;;128.05;60.70;;;6.70;99.90;;;;;;5019113;28;20076;-73
2022/01/29 02:42:53;;;;;;;123.65;61.92;;;6.70;99.90;;;;;;5014091;28;20025;-73
2022/01/29 02:45:19;;;;;;;129.65;62.67;;;6.70;99.90;;;;;;5014028;28;20041;-73
2022/01/29 02:47:45;;;;;;;131.93;63.10;;;6.70;99.90;;;;;;5014375;28;20032;-73
2022/01/29 02:50:11;;;;;;;138.38;62.92;;;6.70;99.90;;;;;;5014720;28;20551;-73
2022/01/29 02:52:36;;;;;;;136.10;64.90;;;6.60;99.90;;;;;;5026158;28;20049;-73
2022/01/29 02:55:03;;;;;;;135.48;63.60;;;6.60;99.90;;;;;;5021288;28;20030;-73
2022/01/29 02:57:29;;;;;;;125.13;63.53;;;6.70;99.90;;;;;;5013755;28;20018;-73
2022/01/29 03:00:00;;;;;;;126.82;62.20;;;6.70;99.90;;;;;;5013539;28;20026;-73
2022/01/29 03:02:28;;;;;;;126.05;61.17;;;6.70;99.90;;;;;;5013853;28;20049;-73
2022/01/29 03:04:56;;;;;;;133.93;61.53;;;6.70;99.90;;;;;;5013628;28;20026;-73
2022/01/29 03:07:22;;;;;;;130.55;59.90;;;6.80;99.90;;;;;;5013823;28;20018;-74
2022/01/29 03:09:48;;;;;;;131.82;61.58;;;6.80;99.90;;;;;;5013604;28;20022;-73
2022/01/29 03:12:14;;;;;;;140.23;63.65;;;6.80;99.90;;;;;;5013851;28;20079;-73
2022/01/29 03:14:39;;;;;;;132.57;62.38;;;6.80;99.90;;;;;;5014906;28;20064;-73
2022/01/29 03:17:05;;;;;;;135.32;60.88;;;6.80;99.90;;;;;;5012496;28;20034;-73
2022/01/29 03:19:30;;;;;;;132.63;61.00;;;6.70;99.90;;;;;;5014592;28;20502;-73
2022/01/29 03:21:56;;;;;;;126.38;60.70;;;6.80;99.90;;;;;;5016860;28;20129;-74
2022/01/29 03:24:21;;;;;;;123.78;58.92;;;6.80;99.90;;;;;;5018336;28;20106;-74
2022/01/29 03:26:47;;;;;;;121.65;58.25;;;6.80;99.90;;;;;;5029406;28;20081;-73
2022/01/29 03:29:12;;;;;;;119.15;59.75;;;6.80;99.90;;;;;;5028619;28;20182;-72
2022/01/29 03:31:38;;;;;;;124.50;59.50;;;6.80;99.90;;;;;;5021549;28;20030;-73
2022/01/29 03:34:03;;;;;;;116.47;55.25;;;6.80;99.90;;;;;;5021664;28;20030;-72
2022/01/29 03:36:29;;;;;;;116.72;57.83;;;6.80;99.90;;;;;;5021253;28;20113;-73
2022/01/29 03:38:54;;;;;;;115.05;56.63;;;6.90;99.90;;;;;;5024626;28;20443;-73
2022/01/29 03:41:20;;;;;;;112.07;54.45;;;6.90;99.90;;;;;;5011841;28;20033;-73
2022/01/29 03:43:50;;;;;;;113.68;56.22;;;6.90;99.90;;;;;;5027487;28;20085;-73
2022/01/29 03:46:15;;;;;;;114.28;53.58;;;6.90;99.90;;;;;;5021901;28;20029;-73
2022/01/29 03:48:41;;;;;;;118.32;54.03;;;6.90;99.90;;;;;;5023921;28;20037;-72
2022/01/29 03:51:07;;;;;;;115.80;54.00;;;6.90;99.90;;;;;;5023582;28;20026;-78
2022/01/29 03:53:32;;;;;;;118.28;53.85;;;6.90;99.90;;;;;;5031826;28;20072;-76
2022/01/29 03:55:58;;;;;;;104.38;51.33;;;6.90;99.90;;;;;;5033323;28;20073;-76
2022/01/29 03:58:23;;;;;;;113.10;53.15;;;6.90;99.90;;;;;;5036209;28;20041;-77
2022/01/29 04:00:49;;;;;;;111.82;53.85;;;7.00;99.90;;;;;;5017319;28;20040;-75
2022/01/29 04:03:15;;;;;;;108.40;53.85;;;7.00;99.90;;;;;;5036674;28;20057;-76
2022/01/29 04:05:40;;;;;;;102.75;50.58;;;7.00;99.90;;;;;;5035813;28;20029;-75
2022/01/29 04:08:13;;;;;;;107.72;52.38;;;7.00;99.90;;;;;;5036347;28;20053;-76
2022/01/29 04:10:39;;;;;;;105.03;50.15;;;7.10;99.90;;;;;;5035728;28;20033;-75
2022/01/29 04:13:06;;;;;;;96.40;49.03;;;7.10;99.90;;;;;;5019529;28;20018;-75
2022/01/29 04:15:31;;;;;;;105.25;49.38;;;7.10;99.90;;;;;;5036750;28;20028;-76
2022/01/29 04:17:58;;;;;;;91.88;47.65;;;7.10;99.90;;;;;;5037971;28;20021;-75
2022/01/29 04:20:23;;;;;;;110.55;51.65;;;7.10;99.90;;;;;;5037451;28;20054;-77
2022/01/29 04:22:49;;;;;;;104.18;50.42;;;7.10;99.90;;;;;;5034769;28;20038;-79
2022/01/29 04:25:14;;;;;;;100.50;49.30;;;7.10;99.90;;;;;;5018946;28;20033;-76
2022/01/29 04:27:43;;;;;;;92.95;47.85;;;7.10;99.90;;;;;;5014050;28;20017;-77
2022/01/29 04:30:15;;;;;;;98.25;48.40;;;7.20;99.90;;;;;;4994367;28;20022;-77
2022/01/29 04:35:07;;;;;;;93.00;47.95;;;7.30;99.90;;;;;;5014607;28;20034;-78
2022/01/29 04:37:32;;;;;;;98.30;48.42;;;7.30;99.90;;;;;;4996386;28;20026;-78
2022/01/29 04:39:58;;;;;;;92.68;46.63;;;7.20;99.90;;;;;;5013986;28;20506;-76
2022/01/29 04:42:24;;;;;;;97.10;47.50;;;7.20;99.90;;;;;;5013402;28;20030;-77
2022/01/29 04:44:49;;;;;;;86.38;45.53;;;7.20;99.90;;;;;;5013195;28;20030;-78
2022/01/29 04:47:15;;;;;;;93.53;46.90;;;7.20;99.90;;;;;;5014154;28;20379;-78
2022/01/29 04:49:40;;;;;;;91.40;46.78;;;7.20;99.90;;;;;;5015857;28;20487;-77
2022/01/29 04:52:06;;;;;;;91.05;45.92;;;7.20;99.90;;;;;;5017823;28;20041;-77
2022/01/29 04:54:33;;;;;;;94.55;48.00;;;7.30;99.90;;;;;;5016348;28;20030;-75
2022/01/29 04:56:58;;;;;;;87.28;46.33;;;7.30;99.90;;;;;;5012885;28;20100;-74
2022/01/29 04:59:24;;;;;;;96.20;46.15;;;7.30;99.90;;;;;;5014388;28;20490;-76
2022/01/29 05:01:50;;;;;;;81.63;44.15;;;7.30;99.90;;;;;;5013791;28;20085;-74
2022/01/29 05:04:15;;;;;;;80.47;44.00;;;7.30;99.90;;;;;;5013062;28;20022;-73
2022/01/29 05:06:41;;;;;;;90.40;46.08;;;7.30;99.90;;;;;;5012626;28;20018;-73
2022/01/29 05:09:08;;;;;;;87.00;44.28;;;7.30;99.90;;;;;;5012959;28;20042;-74
2022/01/29 05:11:34;;;;;;;89.63;45.97;;;7.30;99.90;;;;;;5013088;28;20029;-74
2022/01/29 05:14:01;;;;;;;79.68;43.72;;;7.40;99.90;;;;;;4995203;28;20022;-73
2022/01/29 05:27:11;;;;;;;78.20;41.33;;;7.50;99.90;;;;;;5012354;28;20033;-74
2022/01/29 05:29:37;;;;;;;82.38;42.30;;;7.50;99.90;;;;;;5012630;28;20268;-74
2022/01/29 05:32:06;;;;;;;76.35;42.67;;;7.50;99.90;;;;;;5013036;28;20037;-73
2022/01/29 05:34:32;;;;;;;79.20;42.15;;;7.60;99.90;;;;;;5015658;28;20022;-73
2022/01/29 05:36:57;;;;;;;76.32;41.65;;;7.50;99.90;;;;;;5019192;28;20026;-73
2022/01/29 05:39:24;;;;;;;75.30;40.78;;;7.50;99.90;;;;;;5020744;28;20030;-72
2022/01/29 05:41:50;;;;;;;84.45;42.78;;;7.50;99.90;;;;;;5017767;28;20026;-74
2022/01/29 05:44:16;;;;;;;85.22;42.22;;;7.50;99.90;;;;;;5015999;28;20471;-74
2022/01/29 05:46:42;;;;;;;80.45;40.90;;;7.60;99.90;;;;;;4998280;28;20030;-75
2022/01/29 05:49:07;;;;;;;88.15;43.10;;;7.70;99.90;;;;;;5015936;28;20514;-75
2022/01/29 05:51:33;;;;;;;78.18;40.95;;;7.70;99.90;;;;;;5016086;28;20032;-74
2022/01/29 05:54:01;;;;;;;75.40;39.28;;;7.70;99.90;;;;;;5015763;28;20069;-73
2022/01/29 05:56:27;;;;;;;74.38;40.22;;;7.70;99.90;;;;;;4998376;28;20038;-74
2022/01/29 05:58:53;;;;;;;81.03;39.83;;;7.70;99.90;;;;;;5017752;28;20073;-74
2022/01/29 06:01:19;;;;;;;69.18;38.67;;;7.80;99.90;;;;;;5015696;28;20558;-73
2022/01/29 06:03:45;;;;;;;65.60;37.75;;;7.80;99.90;;;;;;5015846;28;20486;-74
2022/01/29 06:06:10;;;;;;;72.25;37.42;;;7.80;99.90;;;;;;5015503;28;20030;-74
2022/01/29 06:08:36;;;;;;;63.58;34.70;;;7.80;99.90;;;;;;5015906;28;20038;-74
2022/01/29 06:11:02;;;;;;;66.65;35.83;;;7.90;99.90;;;;;;5015549;28;20030;-73
2022/01/29 06:13:27;;;;;;;67.95;34.97;;;7.90;99.90;;;;;;5015966;28;20034;-74
2022/01/29 06:15:53;;;;;;;58.30;33.97;;;7.90;99.90;;;;;;4998430;28;20030;-73
2022/01/29 06:18:21;;;;;;;59.97;32.40;;;8.00;99.90;;;;;;5016668;28;20102;-73
2022/01/29 06:20:52;;;;;;;65.53;33.15;;;8.00;99.90;;;;;;5017476;28;20026;-73
2022/01/29 06:23:21;;;;;;;56.85;32.15;;;8.00;99.90;;;;;;5016924;28;20014;-73
2022/01/29 06:25:46;;;;;;;58.83;32.45;;;8.10;99.90;;;;;;5016576;28;20029;-73
2022/01/29 06:28:12;;;;;;;65.93;33.90;;;8.00;99.90;;;;;;5016423;28;20025;-73
2022/01/29 06:30:38;;;;;;;69.70;35.92;;;8.00;99.90;;;;;;5015992;28;20030;-73
2022/01/29 06:33:11;;;;;;;61.63;33.75;;;8.10;99.90;;;;;;4999197;28;20053;-74
2022/01/29 06:35:38;;;;;;;61.05;33.15;;;8.20;99.90;;;;;;5016824;28;20041;-74
2022/01/29 06:38:08;;;;;;;61.10;34.13;;;8.20;99.90;;;;;;5017203;28;20169;-75
2022/01/29 06:40:35;;;;;;;67.20;34.97;;;8.20;99.90;;;;;;5016667;28;20302;-74
2022/01/29 06:43:03;;;;;;;68.53;35.25;;;8.20;99.90;;;;;;5030206;23;20050;-73
2022/01/29 06:45:29;;;;;;;66.45;36.67;;;8.30;99.90;;;;;;5014316;28;20379;-73
2022/01/29 06:47:54;;;;;;;72.30;36.78;;;8.30;99.90;;;;;;5015552;28;20029;-74
2022/01/29 06:50:21;;;;;;;81.20;39.00;;;8.30;99.90;;;;;;5014704;28;20025;-74
2022/01/29 06:52:47;;;;;;;76.32;39.08;;;8.30;99.90;;;;;;5013397;28;20038;-73
2022/01/29 06:55:12;;;;;;;86.18;39.00;;;8.30;99.90;;;;;;5014835;28;20420;-74
2022/01/29 06:57:38;;;;;;;74.32;39.58;;;8.40;99.90;;;;;;5014010;28;20018;-73
2022/01/29 07:00:07;;;;;;;77.68;38.03;;;8.40;99.90;;;;;;5014523;28;20490;-73
2022/01/29 07:02:36;;;;;;;73.72;38.70;;;8.40;99.90;;;;;;5014630;28;20018;-73
2022/01/29 07:05:03;;;;;;;77.82;40.28;;;8.40;99.90;;;;;;5013827;28;20104;-73
2022/01/29 07:07:29;;;;;;;78.82;38.45;;;8.50;99.90;;;;;;5014144;28;20037;-74
2022/01/29 07:09:55;;;;;;;77.25;38.15;;;8.50;99.90;;;;;;5014158;28;20026;-73
2022/01/29 07:12:21;;;;;;;70.05;37.20;;;8.50;99.90;;;;;;5014394;28;20026;-72
2022/01/29 07:14:49;;;;;;;70.05;35.90;;;8.50;99.90;;;;;;5014414;28;20056;-72
2022/01/29 07:17:22;;;;;;;70.28;36.00;;;8.60;99.90;;;;;;5013794;28;20029;-73
2022/01/29 07:19:48;;;;;;;72.45;36.30;;;8.60;99.90;;;;;;5014290;28;20441;-74
2022/01/29 07:22:14;;;;;;;67.28;35.00;;;8.60;99.90;;;;;;5016035;28;20080;-74
2022/01/29 07:24:39;;;;;;;67.07;34.05;;;8.60;99.90;;;;;;5019058;28;20104;-74
2022/01/29 07:27:05;;;;;;;62.85;34.28;;;8.60;99.90;;;;;;5023554;28;20022;-73
2022/01/29 07:29:32;;;;;;;63.53;32.42;;;8.60;99.90;;;;;;5029740;28;20045;-73
2022/01/29 07:31:58;;;;;;;63.97;31.50;;;8.60;99.90;;;;;;5028819;28;20067;-77
2022/01/29 07:34:25;;;;;;;65.63;30.85;;;8.70;99.90;;;;;;5015333;28;20030;-76
2022/01/29 07:36:56;;;;;;;57.17;30.23;;;8.60;99.90;;;;;;5013323;28;20061;-75
2022/01/29 07:39:22;;;;;;;51.63;29.27;;;8.70;99.90;;;;;;5013405;28;20029;-74
2022/01/29 07:41:48;;;;;;;53.03;28.02;;;8.60;99.90;;;;;;5013546;28;20091;-74
2022/01/29 07:44:15;;;;;;;49.00;27.92;;;8.60;99.90;;;;;;5015326;28;20022;-74
2022/01/29 07:46:41;;;;;;;42.20;25.23;;;8.60;99.90;;;;;;5013179;28;20022;-75
2022/01/29 07:49:07;;;;;;;39.72;24.25;;;8.70;99.90;;;;;;5013097;28;20034;-74
2022/01/29 07:51:32;;;;;;;46.38;25.15;;;8.70;99.90;;;;;;5013017;28;20030;-74
2022/01/29 07:53:58;;;;;;;38.97;24.20;;;8.70;99.90;;;;;;5013325;28;20032;-77
2022/01/29 07:56:24;;;;;;;38.40;22.42;;;8.70;99.90;;;;;;5015316;28;20511;-76
2022/01/29 07:58:51;;;;;;;38.78;21.17;;;8.80;99.90;;;;;;5014479;28;20057;-73
2022/01/29 08:01:16;;;;;;;39.05;22.23;;;8.70;99.90;;;;;;5013412;28;20376;-74
2022/01/29 08:03:46;;;;;;;37.53;21.52;;;8.80;99.90;;;;;;5013503;28;20017;-74
2022/01/29 08:06:15;;;;;;;33.55;20.58;;;8.80;99.90;;;;;;5015215;28;20081;-74
2022/01/29 08:08:41;;;;;;;33.03;20.13;;;8.80;99.90;;;;;;5032872;28;20025;-75
2022/01/29 08:11:08;;;;;;;31.90;18.75;;;8.80;99.90;;;;;;5032395;28;20041;-74
2022/01/29 08:13:35;;;;;;;33.92;18.10;;;8.80;99.90;;;;;;5032599;28;20420;-74
2022/01/29 08:16:01;;;;;;;27.42;16.98;;;8.70;99.90;;;;;;5015249;28;20432;-75
2022/01/29 08:18:26;;;;;;;31.23;17.83;;;8.80;99.90;;;;;;5033263;28;20497;-75
2022/01/29 08:20:52;;;;;;;31.75;16.30;;;8.80;99.90;;;;;;5033351;28;20026;-75
2022/01/29 08:23:17;;;;;;;27.20;15.85;;;8.80;99.90;;;;;;5033936;28;20021;-73
2022/01/29 08:25:43;;;;;;;23.30;16.13;;;8.90;99.90;;;;;;5038904;28;20044;-75
2022/01/29 08:28:09;;;;;;;30.33;18.90;;;8.80;99.90;;;;;;5055570;28;20025;-75
2022/01/29 08:30:35;;;;;;;29.50;17.95;;;8.80;99.90;;;;;;5054247;28;20041;-75
2022/01/29 08:33:01;;;;;;;29.48;16.20;;;8.80;99.90;;;;;;5052383;28;20032;-75
2022/01/29 08:35:27;;;;;;;26.60;16.50;;;8.80;99.90;;;;;;5031561;28;20037;-74
2022/01/29 08:37:57;;;;;;;25.63;15.60;;;8.90;99.90;;;;;;5050493;28;20021;-75
2022/01/29 08:40:23;;;;;;;27.40;15.98;;;8.80;99.90;;;;;;5053118;28;20021;-74
2022/01/29 08:42:48;;;;;;;27.30;15.75;;;8.80;99.90;;;;;;5035809;28;20031;-75
2022/01/29 08:45:14;;;;;;;28.05;16.83;;;8.80;99.90;;;;;;5053671;28;20026;-75
2022/01/29 08:47:41;;;;;;;23.75;15.02;;;8.90;99.90;;;;;;5051736;28;20042;-75
2022/01/29 08:50:08;;;;;;;33.03;16.30;;;8.90;99.90;;;;;;5055239;28;20051;-76
2022/01/29 08:52:34;;;;;;;24.75;15.93;;;8.90;99.90;;;;;;5044384;28;20036;-73
2022/01/29 08:55:00;;;;;;;30.77;17.08;;;8.90;99.90;;;;;;5032910;28;20029;-74
2022/01/29 08:57:25;;;;;;;27.10;15.82;;;8.90;99.90;;;;;;5032826;28;20025;-75
2022/01/29 08:59:51;;;;;;;29.25;15.82;;;8.90;99.90;;;;;;5033199;28;20034;-74
2022/01/29 09:02:17;;;;;;;25.15;15.93;;;8.90;99.90;;;;;;5034450;28;20013;-74
2022/01/29 09:04:42;;;;;;;28.42;16.08;;;8.90;99.90;;;;;;5034292;28;20119;-75
2022/01/29 09:07:09;;;;;;;29.30;15.65;;;9.00;99.90;;;;;;5032774;28;20026;-74
2022/01/29 09:09:35;;;;;;;25.10;15.43;;;9.00;99.90;;;;;;5032763;28;20105;-73
2022/01/29 09:12:01;;;;;;;25.50;15.88;;;9.00;99.90;;;;;;5033180;28;20113;-75
2022/01/29 09:14:27;;;;;;;22.55;15.32;;;9.00;99.90;;;;;;5015166;28;20482;-74
2022/01/29 09:16:55;;;;;;;26.02;16.10;;;9.00;99.90;;;;;;5037770;28;20025;-75
2022/01/29 09:19:21;;;;;;;25.33;14.18;;;9.00;99.90;;;;;;5043097;28;20425;-75
2022/01/29 09:21:46;;;;;;;24.13;15.43;;;9.10;99.90;;;;;;5039703;28;20033;-74
2022/01/29 09:24:12;;;;;;;24.45;14.43;;;9.10;99.90;;;;;;5038228;28;20029;-74
2022/01/29 09:26:37;;;;;;;26.63;14.88;;;9.10;99.90;;;;;;5037896;28;20063;-74
2022/01/29 09:29:03;;;;;;;35.00;16.92;;;9.10;99.90;;;;;;5042797;28;20117;-74
2022/01/29 09:31:29;;;;;;;23.95;13.98;;;9.20;99.90;;;;;;5049076;28;20029;-74
2022/01/29 09:33:55;;;;;;;26.88;13.48;;;9.20;99.90;;;;;;5032046;28;20029;-74
2022/01/29 09:36:21;;;;;;;22.95;14.15;;;9.20;99.90;;;;;;5055118;28;20033;-74
2022/01/29 09:38:47;;;;;;;22.55;14.02;;;9.20;99.90;;;;;;5051172;28;20470;-74
2022/01/29 09:41:15;;;;;;;22.92;14.27;;;9.20;99.90;;;;;;5037479;28;20043;-75
2022/01/29 09:43:43;;;;;;;19.67;12.43;;;9.20;99.90;;;;;;5038355;28;20029;-75
2022/01/29 09:46:10;;;;;;;25.90;13.73;;;9.20;99.90;;;;;;5037255;28;20013;-74
2022/01/29 09:48:36;;;;;;;24.40;14.68;;;9.20;99.90;;;;;;5035020;28;20021;-75
2022/01/29 09:51:02;;;;;;;22.02;14.23;;;9.20;99.90;;;;;;5035277;28;20037;-74
2022/01/29 09:53:30;;;;;;;26.15;14.32;;;9.20;99.90;;;;;;5035187;28;20030;-74
2022/01/29 09:55:56;;;;;;;23.83;14.45;;;9.20;99.90;;;;;;5035121;28;20033;-75
2022/01/29 09:58:21;;;;;;;23.63;14.10;;;9.30;99.90;;;;;;5037473;28;20037;-77
2022/01/29 10:00:47;;;;;;;27.73;13.70;;;9.30;99.90;;;;;;5019157;28;20014;-74
2022/01/29 10:03:19;;;;;;;23.63;13.55;;;9.30;99.90;;;;;;5035316;28;20474;-75
2022/01/29 10:05:48;;;;;;;22.50;13.05;;;9.30;99.90;;;;;;5034904;28;20060;-75
2022/01/29 10:08:14;;;;;;;20.63;12.45;;;9.30;99.90;;;;;;5035041;28;20029;-75
2022/01/29 10:10:48;;;;;;;20.60;12.95;;;9.30;99.90;;;;;;5035010;28;20052;-75
2022/01/29 10:13:36;;;;;;;26.92;13.15;;;9.30;99.90;;;;;;5036851;28;20025;-75
2022/01/29 10:16:05;;;;;;;25.40;13.48;;;9.30;99.90;;;;;;5034535;28;20064;-74
2022/01/29 10:18:31;;;;;;;20.70;13.07;;;9.30;99.90;;;;;;5034527;28;20423;-75
2022/01/29 10:21:26;;;;;;;23.83;12.48;;;9.40;99.90;;;;;;5034435;28;20053;-74
2022/01/29 10:24:04;;;;;;;20.13;12.48;;;9.40;99.90;;;;;;5036206;28;20056;-74
2022/01/29 10:26:42;;;;;;;21.67;12.10;;;9.40;99.90;;;;;;5034819;28;20635;-75
2022/01/29 10:29:29;;;;;;;21.25;12.10;;;9.40;99.90;;;;;;5036384;28;20354;-74
2022/01/29 10:31:56;;;;;;;17.58;10.68;;;9.40;99.90;;;;;;5036808;28;20037;-74
2022/01/29 10:34:34;;;;;;;16.23;10.32;;;9.50;99.90;;;;;;5035100;28;20030;-74
2022/01/29 10:37:16;;;;;;;17.55;10.45;;;9.50;99.90;;;;;;5038426;28;20061;-75
2022/01/29 10:39:48;;;;;;;20.52;10.05;;;9.50;99.90;;;;;;5032687;28;20074;-75
2022/01/29 10:42:18;;;;;;;17.02;10.55;;;9.50;99.90;;;;;;5016251;28;20038;-74
2022/01/29 10:44:45;;;;;;;14.52;9.05;;;9.60;99.90;;;;;;4997849;28;20025;-74
2022/01/29 10:47:11;;;;;;;15.50;9.50;;;9.60;99.90;;;;;;5015307;28;20025;-74
2022/01/29 10:49:44;;;;;;;14.73;8.95;;;9.60;99.90;;;;;;5017255;28;20029;-75
2022/01/29 10:52:12;;;;;;;15.88;9.80;;;9.60;99.90;;;;;;5014825;28;20167;-74
2022/01/29 10:54:39;;;;;;;17.35;9.35;;;9.60;99.90;;;;;;5014586;28;20026;-75
2022/01/29 10:57:10;;;;;;;16.38;9.93;;;9.60;99.90;;;;;;5014662;28;20029;-75
2022/01/29 10:59:55;;;;;;;19.15;9.80;;;9.60;99.90;;;;;;5013899;28;20473;-74
2022/01/29 11:02:24;;;;;;;18.40;10.75;;;9.60;99.90;;;;;;4999999;28;20436;-76
2022/01/29 11:04:50;;;;;;;17.40;10.40;;;9.60;99.90;;;;;;5014776;28;20473;-75
2022/01/29 11:07:18;;;;;;;17.15;10.85;;;9.60;99.90;;;;;;4996755;28;20110;-74
2022/01/29 11:09:51;;;;;;;19.58;11.35;;;9.70;99.90;;;;;;4997933;28;20408;-75
2022/01/29 11:12:26;;;;;;;22.40;12.98;;;9.70;99.90;;;;;;4999536;28;20037;-75
2022/01/29 11:14:58;;;;;;;19.92;11.55;;;9.70;99.90;;;;;;5018084;28;20084;-76
2022/01/29 11:17:25;;;;;;;27.17;12.50;;;9.70;99.90;;;;;;5017160;28;20058;-75
2022/01/29 11:19:51;;;;;;;23.38;12.38;;;9.80;99.90;;;;;;4996289;28;20025;-74
2022/01/29 11:22:27;;;;;;;24.23;13.15;;;9.70;99.90;;;;;;5014688;28;20121;-75
2022/01/29 11:24:59;;;;;;;23.63;12.27;;;9.70;99.90;;;;;;5013658;28;20049;-75
2022/01/29 11:27:28;;;;;;;26.15;12.38;;;9.70;99.90;;;;;;5013580;28;20049;-75
2022/01/29 11:29:57;;;;;;;26.98;13.30;;;9.70;99.90;;;;;;5013786;28;20573;-75
2022/01/29 11:32:23;;;;;;;23.02;13.43;;;9.70;99.90;;;;;;5013511;28;20030;-75
2022/01/29 11:35:09;;;;;;;25.30;12.65;;;9.80;99.90;;;;;;5015343;28;20032;-76
2022/01/29 11:37:53;;;;;;;24.45;12.80;;;9.80;99.90;;;;;;5013612;28;20356;-75
2022/01/29 11:40:23;;;;;;;25.77;11.90;;;9.80;99.90;;;;;;5014554;28;20049;-75
2022/01/29 11:43:21;;;;;;;21.15;11.32;;;9.80;99.90;;;;;;5013371;28;20030;-75
2022/01/29 11:45:56;;;;;;;23.13;11.43;;;9.80;99.90;;;;;;5014199;28;20030;-77
2022/01/29 11:48:29;;;;;;;30.35;12.68;;;9.80;99.90;;;;;;5013592;28;20033;-77
2022/01/29 11:50:56;;;;;;;29.90;11.55;;;9.90;99.90;;;;;;5015416;28;20398;-76
2022/01/29 11:53:23;;;;;;;23.05;10.43;;;9.90;99.90;;;;;;5013546;28;20054;-74
2022/01/29 11:55:54;;;;;;;17.08;9.50;;;10.00;99.90;;;;;;5012495;28;20411;-74
2022/01/29 11:58:27;;;;;;;25.23;9.63;;;9.90;99.90;;;;;;5013128;28;20052;-76
2022/01/29 12:00:55;;;;;;;28.42;9.02;;;10.00;99.90;;;;;;5012516;28;20053;-75
2022/01/29 12:03:37;;;;;;;25.05;9.35;;;10.00;99.90;;;;;;5013135;28;20022;-76
2022/01/29 12:08:40;;;;;;;19.77;7.75;;;10.10;99.90;;;;;;5013013;28;20076;-76
2022/01/29 12:11:10;;;;;;;22.15;8.73;;;10.10;99.90;;;;;;5017532;28;20096;-75
2022/01/29 12:13:36;;;;;;;23.02;8.63;;;10.10;99.90;;;;;;5013504;28;20108;-74
2022/01/29 12:16:02;;;;;;;17.73;8.10;;;10.10;99.90;;;;;;4994911;28;20109;-75
2022/01/29 12:18:35;;;;;;;27.50;7.38;;;10.10;99.90;;;;;;5013081;28;20438;-75
2022/01/29 12:21:02;;;;;;;23.27;7.80;;;10.20;99.90;;;;;;5000478;28;20441;-76
2022/01/29 12:23:28;;;;;;;17.58;6.70;;;10.20;99.90;;;;;;5015073;28;20386;-76
2022/01/29 12:25:58;;;;;;;21.95;7.97;;;10.20;99.90;;;;;;5013193;28;20026;-75
2022/01/29 12:28:25;;;;;;;20.30;7.65;;;10.20;99.90;;;;;;5013222;28;20029;-74
2022/01/29 12:30:51;;;;;;;17.75;7.32;;;10.20;99.90;;;;;;5014428;28;20101;-74
2022/01/29 12:33:20;;;;;;;16.75;6.72;;;10.20;99.90;;;;;;4995358;28;20072;-76
2022/01/29 12:35:50;;;;;;;20.00;7.93;;;10.30;99.90;;;;;;5012149;28;20475;-74
2022/01/29 12:38:18;;;;;;;16.98;7.03;;;10.30;99.90;;;;;;5012627;28;20096;-75
2022/01/29 12:40:52;;;;;;;13.60;7.15;;;10.30;99.90;;;;;;5012763;28;20021;-76
2022/01/29 12:43:24;;;;;;;16.48;6.95;;;10.20;99.90;;;;;;5033556;23;20037;-79
2022/01/29 12:45:50;;;;;;;18.35;7.03;;;10.30;99.90;;;;;;5039177;28;20021;-78
2022/01/29 12:48:17;;;;;;;18.92;6.45;;;10.20;99.90;;;;;;5038565;28;20067;-79
2022/01/29 12:50:44;;;;;;;36.33;9.52;;;10.30;99.90;;;;;;5019032;28;20021;-78
2022/01/29 12:53:19;;;;;;;25.65;7.00;;;10.30;99.90;;;;;;5023822;28;20022;-79
2022/01/29 12:56:05;;;;;;;24.75;7.20;;;10.40;99.90;;;;;;5019103;28;20021;-79